Time;durP1;ratioP1;P1;durP2;ratioP2;P2;SDS_P1;SDS_P2;PMS_P1;PMS_P2;Temp;Humidity;BMP_temperature;BMP_pressure;BME280_temperature;BME280_humidity;BME280_pressure;Samples;Min_cycle;Max_cycle;Signal;HPM_P1;HPM_P2
2022/04/04 00:01:14;;;;;;;;;;;21.50;24.10;;;;;;464374;253;1430;-60
2022/04/04 00:03:15;;;;;;;;;;;21.50;24.10;;;;;;464494;256;1101;-59
2022/04/04 00:05:17;;;;;;;;;;;21.40;24.10;;;;;;464518;256;999;-60
2022/04/04 00:07:18;;;;;;;;;;;21.40;24.10;;;;;;464464;256;1246;-59
2022/04/04 00:09:19;;;;;;;;;;;21.40;24.10;;;;;;464804;256;1051;-59
2022/04/04 00:11:21;;;;;;;;;;;21.30;24.30;;;;;;464575;256;1257;-59
2022/04/04 00:13:22;;;;;;;;;;;21.30;24.30;;;;;;464481;256;1238;-59
2022/04/04 00:15:23;;;;;;;;;;;21.30;24.20;;;;;;464774;256;1085;-60
2022/04/04 00:17:25;;;;;;;;;;;21.30;24.20;;;;;;464430;256;2210;-60
2022/04/04 00:19:26;;;;;;;;;;;21.30;24.20;;;;;;464484;256;1061;-60
2022/04/04 00:21:27;;;;;;;;;;;21.40;24.20;;;;;;464514;256;1199;-59
2022/04/04 00:23:29;;;;;;;;;;;21.40;24.10;;;;;;464493;256;1083;-59
2022/04/04 00:25:30;;;;;;;;;;;21.30;24.20;;;;;;464452;256;1212;-59
2022/04/04 00:27:31;;;;;;;;;;;21.40;24.20;;;;;;464458;256;1080;-59
2022/04/04 00:29:33;;;;;;;;;;;21.30;24.20;;;;;;464448;256;1183;-59
2022/04/04 00:31:34;;;;;;;;;;;21.30;24.20;;;;;;464397;256;1243;-60
2022/04/04 00:33:35;;;;;;;;;;;21.40;24.20;;;;;;464491;256;1032;-60
2022/04/04 00:35:37;;;;;;;;;;;21.30;24.20;;;;;;464532;256;1204;-60
2022/04/04 00:37:38;;;;;;;;;;;21.40;24.20;;;;;;464464;256;2131;-60
2022/04/04 00:39:39;;;;;;;;;;;21.30;24.20;;;;;;464617;256;998;-59
2022/04/04 00:41:41;;;;;;;;;;;21.40;24.20;;;;;;464319;256;1242;-59
2022/04/04 00:43:42;;;;;;;;;;;21.40;24.20;;;;;;464551;256;1044;-60
2022/04/04 00:45:44;;;;;;;;;;;21.40;24.10;;;;;;464551;256;1219;-59
2022/04/04 00:47:45;;;;;;;;;;;21.40;24.20;;;;;;464408;256;1299;-59
2022/04/04 00:49:47;;;;;;;;;;;21.40;24.10;;;;;;464728;256;1129;-59
2022/04/04 00:51:47;;;;;;;;;;;21.30;24.10;;;;;;464399;256;1459;-60
2022/04/04 00:53:49;;;;;;;;;;;21.40;24.10;;;;;;464667;256;981;-59
2022/04/04 00:55:50;;;;;;;;;;;21.50;24.10;;;;;;464524;256;1180;-59
2022/04/04 00:57:51;;;;;;;;;;;21.40;24.10;;;;;;464411;256;2155;-60
2022/04/04 00:59:53;;;;;;;;;;;21.50;24.10;;;;;;464701;256;1093;-59
2022/04/04 01:01:54;;;;;;;;;;;21.40;24.10;;;;;;464380;256;1230;-59
2022/04/04 01:03:55;;;;;;;;;;;21.40;24.10;;;;;;464747;256;963;-59
2022/04/04 01:05:58;;;;;;;;;;;21.40;24.10;;;;;;464480;256;1274;-59
2022/04/04 01:07:58;;;;;;;;;;;21.40;24.10;;;;;;464694;257;1434;-59
2022/04/04 01:09:59;;;;;;;;;;;21.40;24.20;;;;;;464493;256;1045;-59
2022/04/04 01:12:00;;;;;;;;;;;21.40;24.20;;;;;;464449;256;1104;-60
2022/04/04 01:14:02;;;;;;;;;;;21.20;24.20;;;;;;464489;256;1075;-59
2022/04/04 01:16:03;;;;;;;;;;;21.30;24.20;;;;;;464473;256;1343;-60
2022/04/04 01:18:04;;;;;;;;;;;21.30;24.20;;;;;;464456;256;2198;-59
2022/04/04 01:20:06;;;;;;;;;;;21.30;24.20;;;;;;464493;256;1042;-59
2022/04/04 01:22:07;;;;;;;;;;;21.40;24.20;;;;;;464365;257;1506;-59
2022/04/04 01:24:09;;;;;;;;;;;21.40;24.10;;;;;;464747;256;1040;-60
2022/04/04 01:26:10;;;;;;;;;;;21.40;24.10;;;;;;464374;256;1226;-59
2022/04/04 01:28:11;;;;;;;;;;;21.30;24.10;;;;;;464799;256;957;-60
2022/04/04 01:30:13;;;;;;;;;;;21.30;24.10;;;;;;464518;256;1095;-59
2022/04/04 01:32:14;;;;;;;;;;;21.30;24.10;;;;;;464609;256;1227;-60
2022/04/04 01:34:15;;;;;;;;;;;21.30;24.10;;;;;;464498;256;1028;-59
2022/04/04 01:36:17;;;;;;;;;;;21.20;24.20;;;;;;464564;256;1337;-59
2022/04/04 01:38:18;;;;;;;;;;;21.30;24.10;;;;;;464576;256;2135;-59
2022/04/04 01:40:19;;;;;;;;;;;21.30;24.20;;;;;;464776;256;1106;-59
2022/04/04 01:42:21;;;;;;;;;;;21.30;24.10;;;;;;464475;256;1127;-59
2022/04/04 01:44:22;;;;;;;;;;;21.30;24.10;;;;;;464521;256;1080;-59
2022/04/04 01:46:27;;;;;;;;;;;21.40;24.10;;;;;;464426;256;1226;-59
2022/04/04 01:48:28;;;;;;;;;;;21.30;24.10;;;;;;464486;256;1051;-60
2022/04/04 01:50:29;;;;;;;;;;;21.40;24.10;;;;;;464687;256;1081;-59
2022/04/04 01:52:31;;;;;;;;;;;21.40;24.10;;;;;;464422;256;1179;-60
2022/04/04 01:54:32;;;;;;;;;;;21.40;24.00;;;;;;464596;256;1098;-59
2022/04/04 01:56:33;;;;;;;;;;;21.30;24.00;;;;;;464578;256;1242;-59
2022/04/04 01:58:35;;;;;;;;;;;21.30;24.00;;;;;;464574;256;2199;-60
2022/04/04 02:00:36;;;;;;;;;;;21.40;23.90;;;;;;464528;256;1061;-60
2022/04/04 02:02:37;;;;;;;;;;;21.40;24.00;;;;;;464618;256;1164;-59
2022/04/04 02:04:39;;;;;;;;;;;21.40;24.00;;;;;;464516;256;1036;-60
2022/04/04 02:06:40;;;;;;;;;;;21.30;24.00;;;;;;464703;256;1063;-59
2022/04/04 02:08:42;;;;;;;;;;;21.30;24.00;;;;;;464560;256;1034;-60
2022/04/04 02:10:44;;;;;;;;;;;21.20;24.10;;;;;;464514;256;1020;-59
2022/04/04 02:12:44;;;;;;;;;;;21.30;24.10;;;;;;464405;256;1590;-60
2022/04/04 02:14:46;;;;;;;;;;;21.30;24.10;;;;;;464601;256;1089;-59
2022/04/04 02:16:47;;;;;;;;;;;21.30;24.10;;;;;;464640;256;1282;-60
2022/04/04 02:18:48;;;;;;;;;;;21.20;24.10;;;;;;464686;256;2167;-60
2022/04/04 02:20:50;;;;;;;;;;;21.30;24.00;;;;;;464493;256;1218;-59
2022/04/04 02:22:51;;;;;;;;;;;21.40;23.90;;;;;;464623;256;1091;-61
2022/04/04 02:24:52;;;;;;;;;;;21.30;24.00;;;;;;464658;256;960;-60
2022/04/04 02:26:54;;;;;;;;;;;21.40;24.00;;;;;;464662;256;1040;-59
2022/04/04 02:28:55;;;;;;;;;;;21.40;23.90;;;;;;464566;256;1127;-59
2022/04/04 02:30:56;;;;;;;;;;;21.40;23.80;;;;;;464487;256;1097;-59
2022/04/04 02:32:58;;;;;;;;;;;21.50;23.90;;;;;;464602;256;1218;-59
2022/04/04 02:34:59;;;;;;;;;;;21.40;23.90;;;;;;464485;256;1061;-59
2022/04/04 02:37:00;;;;;;;;;;;21.40;23.90;;;;;;464470;256;950;-59
2022/04/04 02:39:02;;;;;;;;;;;21.40;23.90;;;;;;464451;256;2182;-59
2022/04/04 02:41:04;;;;;;;;;;;21.30;23.90;;;;;;464441;256;1186;-59
2022/04/04 02:43:04;;;;;;;;;;;21.40;23.90;;;;;;464422;257;1403;-60
2022/04/04 02:45:05;;;;;;;;;;;21.30;23.90;;;;;;464610;256;1011;-59
2022/04/04 02:47:07;;;;;;;;;;;21.30;24.00;;;;;;464386;256;1153;-59
2022/04/04 02:49:08;;;;;;;;;;;21.20;24.00;;;;;;464615;256;949;-59
2022/04/04 02:51:09;;;;;;;;;;;21.30;24.00;;;;;;464664;256;1166;-59
2022/04/04 02:53:11;;;;;;;;;;;21.30;24.00;;;;;;464488;256;1178;-60
2022/04/04 02:57:31;;;;;;;;;;;21.30;23.90;;;;;;464450;256;2147;-59
2022/04/04 02:59:33;;;;;;;;;;;21.30;23.90;;;;;;464461;256;1246;-60
2022/04/04 03:01:35;;;;;;;;;;;21.40;23.90;;;;;;464295;256;1236;-60
2022/04/04 03:03:35;;;;;;;;;;;21.40;23.90;;;;;;464485;256;1412;-59
2022/04/04 03:05:37;;;;;;;;;;;21.30;23.80;;;;;;464770;256;1220;-60
2022/04/04 03:07:38;;;;;;;;;;;21.40;23.80;;;;;;464456;256;1084;-59
2022/04/04 03:09:39;;;;;;;;;;;21.40;23.90;;;;;;464552;256;1143;-60
2022/04/04 03:11:41;;;;;;;;;;;21.30;23.90;;;;;;464359;256;1259;-59
2022/04/04 03:13:42;;;;;;;;;;;21.30;24.00;;;;;;464512;256;1069;-59
2022/04/04 03:15:43;;;;;;;;;;;21.30;24.00;;;;;;464623;256;1224;-59
2022/04/04 03:17:45;;;;;;;;;;;21.20;24.10;;;;;;464650;256;2166;-60
2022/04/04 03:19:47;;;;;;;;;;;21.10;24.10;;;;;;464572;256;1233;-59
2022/04/04 03:21:47;;;;;;;;;;;21.20;24.00;;;;;;464321;256;1385;-59
2022/04/04 03:23:49;;;;;;;;;;;21.20;24.00;;;;;;464574;256;1052;-59
2022/04/04 03:25:50;;;;;;;;;;;21.30;24.00;;;;;;464390;256;1214;-60
2022/04/04 03:27:52;;;;;;;;;;;21.40;23.90;;;;;;464472;256;1079;-59
2022/04/04 03:29:53;;;;;;;;;;;21.30;23.90;;;;;;464490;256;1483;-59
2022/04/04 03:31:54;;;;;;;;;;;21.40;23.90;;;;;;464556;256;1185;-59
2022/04/04 03:33:55;;;;;;;;;;;21.40;23.80;;;;;;464641;256;1196;-59
2022/04/04 03:35:58;;;;;;;;;;;21.40;23.90;;;;;;464647;256;1240;-60
2022/04/04 03:37:58;;;;;;;;;;;21.30;23.90;;;;;;464400;256;2151;-59
2022/04/04 03:39:59;;;;;;;;;;;21.30;23.90;;;;;;464604;256;1086;-59
2022/04/04 03:42:01;;;;;;;;;;;21.40;23.80;;;;;;464430;256;1158;-61
2022/04/04 03:44:02;;;;;;;;;;;21.30;23.90;;;;;;464764;256;1323;-59
2022/04/04 03:46:03;;;;;;;;;;;21.30;23.80;;;;;;464524;256;1241;-60
2022/04/04 03:48:05;;;;;;;;;;;21.30;23.90;;;;;;464577;256;1151;-59
2022/04/04 03:50:06;;;;;;;;;;;21.40;23.80;;;;;;464749;256;1051;-60
2022/04/04 03:52:07;;;;;;;;;;;21.40;23.80;;;;;;464400;256;1312;-59
2022/04/04 03:54:09;;;;;;;;;;;21.40;23.80;;;;;;464745;256;1010;-59
2022/04/04 03:56:11;;;;;;;;;;;21.40;23.80;;;;;;464377;256;1207;-59
2022/04/04 03:58:12;;;;;;;;;;;21.40;23.80;;;;;;464394;256;2202;-59
2022/04/04 04:00:13;;;;;;;;;;;21.40;23.80;;;;;;464491;256;1191;-59
2022/04/04 04:02:14;;;;;;;;;;;21.40;23.80;;;;;;464278;256;1282;-59
2022/04/04 04:04:15;;;;;;;;;;;21.30;23.90;;;;;;464433;256;1175;-59
2022/04/04 04:06:17;;;;;;;;;;;21.30;23.90;;;;;;464286;256;1354;-60
2022/04/04 04:08:18;;;;;;;;;;;21.30;23.80;;;;;;464432;256;1081;-60
2022/04/04 04:10:19;;;;;;;;;;;21.30;23.80;;;;;;464515;256;1078;-60
2022/04/04 04:12:21;;;;;;;;;;;21.30;23.80;;;;;;464384;256;1229;-60
2022/04/04 04:14:22;;;;;;;;;;;21.30;23.80;;;;;;464463;256;1114;-60
2022/04/04 04:16:23;;;;;;;;;;;21.30;23.80;;;;;;464368;256;1467;-59
2022/04/04 04:18:25;;;;;;;;;;;21.30;23.80;;;;;;464416;256;2199;-60
2022/04/04 04:20:29;;;;;;;;;;;21.10;23.90;;;;;;464589;256;1061;-59
2022/04/04 04:22:27;;;;;;;;;;;21.20;23.90;;;;;;464150;257;1777;-60
2022/04/04 04:24:29;;;;;;;;;;;21.20;23.80;;;;;;464449;256;1278;-60
2022/04/04 04:26:30;;;;;;;;;;;21.30;23.90;;;;;;464467;256;1224;-59
2022/04/04 04:28:32;;;;;;;;;;;21.20;23.80;;;;;;464584;256;1135;-60
2022/04/04 04:30:33;;;;;;;;;;;21.30;23.90;;;;;;464280;256;1498;-60
2022/04/04 04:32:34;;;;;;;;;;;21.20;23.90;;;;;;464381;256;1281;-60
2022/04/04 04:34:35;;;;;;;;;;;21.20;23.90;;;;;;464423;256;1257;-60
2022/04/04 04:36:39;;;;;;;;;;;21.30;23.80;;;;;;464254;256;1351;-59
2022/04/04 04:38:38;;;;;;;;;;;21.20;23.90;;;;;;464203;257;2156;-59
2022/04/04 04:40:39;;;;;;;;;;;21.20;23.90;;;;;;464201;256;1230;-59
2022/04/04 04:42:40;;;;;;;;;;;21.20;23.90;;;;;;464256;256;1235;-60
2022/04/04 04:44:42;;;;;;;;;;;21.20;23.90;;;;;;464332;256;1262;-59
2022/04/04 04:46:44;;;;;;;;;;;21.20;23.80;;;;;;464353;256;1171;-60
2022/04/04 04:48:44;;;;;;;;;;;21.20;23.80;;;;;;464289;256;1578;-59
2022/04/04 04:50:47;;;;;;;;;;;21.20;23.90;;;;;;464249;256;1094;-60
2022/04/04 04:52:47;;;;;;;;;;;21.20;23.90;;;;;;464166;256;1961;-60
2022/04/04 04:54:49;;;;;;;;;;;21.20;23.90;;;;;;464216;256;1061;-60
2022/04/04 04:56:50;;;;;;;;;;;21.20;23.80;;;;;;464166;256;1196;-60
2022/04/04 04:58:51;;;;;;;;;;;21.20;23.90;;;;;;464278;256;2144;-60
2022/04/04 05:00:52;;;;;;;;;;;21.10;23.90;;;;;;464355;256;1110;-60
2022/04/04 05:05:14;;;;;;;;;;;21.10;24.00;;;;;;464266;257;1207;-59
2022/04/04 05:07:15;;;;;;;;;;;21.00;23.90;;;;;;464237;256;1242;-60
2022/04/04 05:09:17;;;;;;;;;;;21.10;24.00;;;;;;464223;256;1196;-60
2022/04/04 05:11:18;;;;;;;;;;;21.00;24.00;;;;;;464120;256;1337;-59
2022/04/04 05:13:21;;;;;;;;;;;21.00;24.00;;;;;;464240;256;1250;-59
2022/04/04 05:15:22;;;;;;;;;;;21.10;23.90;;;;;;464142;257;2165;-60
2022/04/04 05:17:23;;;;;;;;;;;21.10;24.00;;;;;;464132;256;1349;-60
2022/04/04 05:19:24;;;;;;;;;;;21.10;24.00;;;;;;464204;256;2210;-59
2022/04/04 05:21:25;;;;;;;;;;;20.90;24.10;;;;;;464146;256;1225;-59
2022/04/04 05:23:27;;;;;;;;;;;20.90;24.00;;;;;;464214;256;1088;-60
2022/04/04 05:25:28;;;;;;;;;;;20.90;24.00;;;;;;464329;256;1271;-59
2022/04/04 05:27:29;;;;;;;;;;;21.00;24.00;;;;;;464213;256;1179;-60
2022/04/04 05:29:31;;;;;;;;;;;21.00;24.00;;;;;;464155;256;1062;-60
2022/04/04 05:31:32;;;;;;;;;;;21.10;23.90;;;;;;464261;256;1186;-60
2022/04/04 05:33:34;;;;;;;;;;;21.10;23.80;;;;;;464148;256;1080;-60
2022/04/04 05:35:34;;;;;;;;;;;21.10;23.90;;;;;;464143;256;1323;-59
2022/04/04 05:37:36;;;;;;;;;;;21.10;23.90;;;;;;464278;256;1241;-60
2022/04/04 05:39:37;;;;;;;;;;;21.10;23.90;;;;;;464068;256;2219;-60
2022/04/04 05:41:38;;;;;;;;;;;21.10;23.90;;;;;;464075;256;1184;-60
2022/04/04 05:43:40;;;;;;;;;;;21.10;23.90;;;;;;464162;256;993;-59
2022/04/04 05:45:41;;;;;;;;;;;21.10;23.90;;;;;;464242;256;1326;-60
2022/04/04 05:47:43;;;;;;;;;;;21.10;23.90;;;;;;463986;256;1262;-59
2022/04/04 05:49:44;;;;;;;;;;;21.00;24.00;;;;;;464111;256;1616;-59
2022/04/04 05:51:45;;;;;;;;;;;21.10;23.90;;;;;;464085;256;1206;-59
2022/04/04 05:53:47;;;;;;;;;;;21.10;23.90;;;;;;464185;256;1193;-59
2022/04/04 05:55:48;;;;;;;;;;;21.20;23.90;;;;;;464200;256;1203;-60
2022/04/04 05:57:49;;;;;;;;;;;21.10;24.00;;;;;;464098;256;1238;-59
2022/04/04 05:59:50;;;;;;;;;;;21.10;24.00;;;;;;463994;256;2144;-59
2022/04/04 06:01:52;;;;;;;;;;;21.00;24.10;;;;;;463938;256;1318;-60
2022/04/04 06:03:53;;;;;;;;;;;20.90;24.10;;;;;;463945;256;1180;-59
2022/04/04 06:05:54;;;;;;;;;;;20.90;24.20;;;;;;463965;256;1228;-59
2022/04/04 06:07:56;;;;;;;;;;;20.80;24.20;;;;;;463881;256;1455;-60
2022/04/04 06:09:57;;;;;;;;;;;20.80;24.20;;;;;;464023;256;1081;-60
2022/04/04 06:11:58;;;;;;;;;;;20.80;24.30;;;;;;463905;256;1264;-59
2022/04/04 06:14:00;;;;;;;;;;;20.80;24.30;;;;;;464007;256;1086;-60
2022/04/04 06:16:01;;;;;;;;;;;20.70;24.30;;;;;;463903;256;1385;-59
2022/04/04 06:18:02;;;;;;;;;;;20.70;24.30;;;;;;463941;256;1186;-60
2022/04/04 06:20:04;;;;;;;;;;;20.70;24.30;;;;;;463924;256;2190;-59
2022/04/04 06:22:05;;;;;;;;;;;20.70;24.40;;;;;;463866;256;1607;-60
2022/04/04 06:24:06;;;;;;;;;;;20.50;24.40;;;;;;463961;256;1225;-59
2022/04/04 06:26:08;;;;;;;;;;;20.60;24.40;;;;;;463841;256;1215;-60
2022/04/04 06:28:09;;;;;;;;;;;20.60;24.30;;;;;;463963;256;1182;-60
2022/04/04 06:30:10;;;;;;;;;;;20.60;24.40;;;;;;463984;256;1038;-60
2022/04/04 06:32:12;;;;;;;;;;;20.60;24.40;;;;;;463886;256;1374;-60
2022/04/04 06:34:13;;;;;;;;;;;20.60;24.30;;;;;;463717;256;1086;-59
2022/04/04 06:36:14;;;;;;;;;;;20.60;24.30;;;;;;463649;256;1246;-59
2022/04/04 06:38:18;;;;;;;;;;;20.60;24.30;;;;;;463750;256;1240;-59
2022/04/04 06:40:17;;;;;;;;;;;20.60;24.30;;;;;;463622;257;2206;-59
2022/04/04 06:42:19;;;;;;;;;;;20.60;24.30;;;;;;463804;256;1249;-60
2022/04/04 06:44:20;;;;;;;;;;;20.60;24.20;;;;;;463988;256;1101;-60
2022/04/04 06:46:22;;;;;;;;;;;20.60;24.20;;;;;;463704;256;1195;-59
2022/04/04 06:48:23;;;;;;;;;;;20.60;24.20;;;;;;463762;256;2101;-59
2022/04/04 06:50:24;;;;;;;;;;;20.70;24.20;;;;;;463646;256;1248;-60
2022/04/04 06:52:25;;;;;;;;;;;20.60;24.20;;;;;;463712;256;1205;-60
2022/04/04 06:54:27;;;;;;;;;;;20.70;24.20;;;;;;463785;256;1080;-60
2022/04/04 06:56:28;;;;;;;;;;;20.70;24.20;;;;;;463695;256;1258;-60
2022/04/04 06:58:30;;;;;;;;;;;20.70;24.20;;;;;;463800;256;1058;-60
2022/04/04 07:00:31;;;;;;;;;;;20.70;24.10;;;;;;463770;256;2186;-60
2022/04/04 07:02:32;;;;;;;;;;;20.70;24.10;;;;;;463727;256;1048;-60
2022/04/04 07:04:34;;;;;;;;;;;20.70;24.10;;;;;;463701;256;1060;-59
2022/04/04 07:06:35;;;;;;;;;;;20.80;24.10;;;;;;463717;256;1198;-60
2022/04/04 07:08:36;;;;;;;;;;;20.70;24.10;;;;;;463610;256;1107;-60
2022/04/04 07:10:38;;;;;;;;;;;20.80;24.10;;;;;;463560;256;1309;-60
2022/04/04 07:12:39;;;;;;;;;;;20.80;24.10;;;;;;463505;256;1225;-59
2022/04/04 07:14:40;;;;;;;;;;;20.70;24.10;;;;;;463554;256;1191;-60
2022/04/04 07:16:42;;;;;;;;;;;20.70;24.10;;;;;;463378;256;1188;-60
2022/04/04 07:18:43;;;;;;;;;;;20.70;24.20;;;;;;463599;256;1180;-60
2022/04/04 07:20:45;;;;;;;;;;;20.70;24.20;;;;;;463520;256;2127;-60
2022/04/04 07:22:46;;;;;;;;;;;20.70;24.10;;;;;;463455;256;1229;-60
2022/04/04 07:24:47;;;;;;;;;;;20.70;24.20;;;;;;463644;257;1049;-60
2022/04/04 07:26:49;;;;;;;;;;;20.60;24.30;;;;;;463476;256;1260;-59
2022/04/04 07:28:50;;;;;;;;;;;20.60;24.30;;;;;;463510;256;1073;-60
2022/04/04 07:30:52;;;;;;;;;;;20.60;24.20;;;;;;463344;256;1107;-60
2022/04/04 07:32:53;;;;;;;;;;;20.60;24.30;;;;;;463423;256;2593;-60
2022/04/04 07:34:54;;;;;;;;;;;20.60;24.30;;;;;;463433;256;1072;-60
2022/04/04 07:36:55;;;;;;;;;;;20.60;24.20;;;;;;463489;256;1494;-60
2022/04/04 07:38:57;;;;;;;;;;;20.70;24.20;;;;;;463700;256;1133;-59
2022/04/04 07:40:58;;;;;;;;;;;20.70;24.20;;;;;;463613;256;2267;-59
2022/04/04 07:42:59;;;;;;;;;;;20.70;24.10;;;;;;463561;256;1179;-59
2022/04/04 07:45:01;;;;;;;;;;;20.80;24.10;;;;;;463517;256;1251;-60
2022/04/04 07:47:02;;;;;;;;;;;20.80;24.10;;;;;;463606;256;1411;-60
2022/04/04 07:49:03;;;;;;;;;;;20.80;24.10;;;;;;463490;256;1132;-60
2022/04/04 07:51:04;;;;;;;;;;;20.70;24.10;;;;;;463451;256;1240;-60
2022/04/04 07:53:06;;;;;;;;;;;20.70;24.10;;;;;;463497;256;1085;-60
2022/04/04 07:55:07;;;;;;;;;;;20.60;24.10;;;;;;463519;256;1080;-60
2022/04/04 07:57:08;;;;;;;;;;;20.60;24.10;;;;;;463534;256;1162;-59
2022/04/04 07:59:10;;;;;;;;;;;20.60;24.00;;;;;;463481;256;2210;-59
2022/04/04 08:01:11;;;;;;;;;;;20.60;24.10;;;;;;463450;256;1430;-59
2022/04/04 08:03:13;;;;;;;;;;;20.60;24.00;;;;;;463814;256;1056;-60
2022/04/04 08:05:14;;;;;;;;;;;20.70;24.00;;;;;;463819;257;1272;-60
2022/04/04 08:07:18;;;;;;;;;;;20.70;23.90;;;;;;463626;256;1475;-60
2022/04/04 08:09:16;;;;;;;;;;;20.70;23.90;;;;;;463429;257;1470;-59
2022/04/04 08:11:18;;;;;;;;;;;20.70;23.90;;;;;;463428;257;1357;-59
2022/04/04 08:13:19;;;;;;;;;;;20.70;23.90;;;;;;463644;256;1092;-59
2022/04/04 08:15:20;;;;;;;;;;;20.70;23.90;;;;;;463707;256;1280;-59
2022/04/04 08:17:22;;;;;;;;;;;20.60;23.90;;;;;;463616;256;1099;-59
2022/04/04 08:19:23;;;;;;;;;;;20.70;23.80;;;;;;463766;256;2191;-59
2022/04/04 08:21:26;;;;;;;;;;;20.60;23.80;;;;;;463703;256;1359;-60
2022/04/04 08:23:29;;;;;;;;;;;20.60;23.90;;;;;;463675;257;2071;-59
2022/04/04 08:25:27;;;;;;;;;;;20.60;23.80;;;;;;463439;257;2117;-60
2022/04/04 08:27:29;;;;;;;;;;;20.60;23.90;;;;;;463641;256;1052;-59
2022/04/04 08:29:30;;;;;;;;;;;20.50;23.80;;;;;;463609;256;1133;-60
2022/04/04 08:31:31;;;;;;;;;;;20.60;23.80;;;;;;463528;256;1334;-60
2022/04/04 08:33:33;;;;;;;;;;;20.60;23.80;;;;;;463599;256;1114;-59
2022/04/04 08:35:35;;;;;;;;;;;20.60;23.70;;;;;;463547;256;1197;-60
2022/04/04 08:37:36;;;;;;;;;;;20.60;23.70;;;;;;463507;256;1340;-60
2022/04/04 08:39:37;;;;;;;;;;;20.60;23.70;;;;;;463663;256;2194;-59
2022/04/04 08:41:39;;;;;;;;;;;20.60;23.70;;;;;;463632;256;1123;-60
2022/04/04 08:43:40;;;;;;;;;;;20.60;23.60;;;;;;463515;256;1315;-59
2022/04/04 08:45:41;;;;;;;;;;;20.60;23.60;;;;;;463505;256;1077;-60
2022/04/04 08:47:43;;;;;;;;;;;20.70;23.50;;;;;;463652;256;1197;-60
2022/04/04 08:49:44;;;;;;;;;;;20.70;23.50;;;;;;463645;256;1121;-59
2022/04/04 08:51:45;;;;;;;;;;;20.70;23.40;;;;;;463627;256;1212;-59
2022/04/04 08:53:47;;;;;;;;;;;20.70;23.40;;;;;;463513;256;1271;-60
2022/04/04 08:55:48;;;;;;;;;;;20.70;23.40;;;;;;463511;256;1349;-59
2022/04/04 08:57:51;;;;;;;;;;;20.70;23.40;;;;;;463522;256;1204;-59
2022/04/04 08:59:51;;;;;;;;;;;20.70;23.40;;;;;;463358;257;2162;-60
2022/04/04 09:01:52;;;;;;;;;;;20.70;23.50;;;;;;463447;256;1343;-60
2022/04/04 09:03:54;;;;;;;;;;;20.70;23.50;;;;;;463750;256;1112;-59
2022/04/04 09:05:55;;;;;;;;;;;20.70;23.40;;;;;;463651;256;1694;-60
2022/04/04 09:07:56;;;;;;;;;;;20.80;23.50;;;;;;463807;256;1170;-60
2022/04/04 09:09:57;;;;;;;;;;;20.70;23.40;;;;;;463731;256;1252;-60
2022/04/04 09:11:59;;;;;;;;;;;20.70;23.50;;;;;;463631;256;1344;-60
2022/04/04 09:14:00;;;;;;;;;;;20.70;23.50;;;;;;463682;256;1096;-60
2022/04/04 09:16:01;;;;;;;;;;;20.70;23.60;;;;;;463667;256;1222;-60
2022/04/04 09:18:02;;;;;;;;;;;20.70;23.50;;;;;;463678;256;1222;-60
2022/04/04 09:20:04;;;;;;;;;;;20.70;23.40;;;;;;463639;256;2199;-60
2022/04/04 09:22:05;;;;;;;;;;;20.80;23.50;;;;;;463491;256;1198;-60
2022/04/04 09:24:10;;;;;;;;;;;20.80;23.50;;;;;;463527;256;1111;-59
2022/04/04 09:26:09;;;;;;;;;;;20.80;23.50;;;;;;463508;257;2182;-60
2022/04/04 09:28:10;;;;;;;;;;;20.80;23.50;;;;;;463675;256;1099;-60
2022/04/04 09:30:12;;;;;;;;;;;20.60;23.80;;;;;;463357;256;1239;-59
2022/04/04 09:32:15;;;;;;;;;;;20.60;23.60;;;;;;463593;256;2194;-60
2022/04/04 09:34:14;;;;;;;;;;;20.70;23.60;;;;;;463577;257;2092;-60
2022/04/04 09:36:15;;;;;;;;;;;20.80;23.50;;;;;;463650;256;1382;-59
2022/04/04 09:38:17;;;;;;;;;;;20.80;23.50;;;;;;463698;256;1221;-59
2022/04/04 09:40:18;;;;;;;;;;;20.90;23.50;;;;;;463670;256;2127;-60
2022/04/04 09:42:19;;;;;;;;;;;20.90;23.50;;;;;;463669;256;1186;-59
2022/04/04 09:44:25;;;;;;;;;;;20.80;23.60;;;;;;463715;256;1289;-60
2022/04/04 09:46:22;;;;;;;;;;;20.80;23.60;;;;;;463411;257;2163;-60
2022/04/04 09:48:27;;;;;;;;;;;20.80;23.50;;;;;;463710;256;1077;-60
2022/04/04 09:50:26;;;;;;;;;;;20.90;23.60;;;;;;463364;257;1618;-59
2022/04/04 09:52:27;;;;;;;;;;;20.80;23.50;;;;;;463565;256;1345;-59
2022/04/04 09:54:29;;;;;;;;;;;20.90;23.60;;;;;;463486;256;1957;-60
2022/04/04 09:56:29;;;;;;;;;;;20.80;23.50;;;;;;463411;256;1418;-60
2022/04/04 09:58:31;;;;;;;;;;;20.80;23.70;;;;;;463576;256;1195;-59
2022/04/04 10:00:32;;;;;;;;;;;20.80;23.70;;;;;;463511;256;2190;-60
2022/04/04 10:02:33;;;;;;;;;;;20.80;23.70;;;;;;463671;256;1361;-60
2022/04/04 10:04:35;;;;;;;;;;;20.80;23.70;;;;;;463675;256;1171;-60
2022/04/04 10:06:36;;;;;;;;;;;20.80;23.70;;;;;;463724;256;1345;-60
2022/04/04 10:08:37;;;;;;;;;;;20.90;23.70;;;;;;463669;256;1194;-59
2022/04/04 10:10:39;;;;;;;;;;;20.90;23.60;;;;;;463643;256;1347;-60
2022/04/04 10:12:40;;;;;;;;;;;21.00;23.60;;;;;;463673;256;1227;-60
2022/04/04 10:14:41;;;;;;;;;;;20.90;23.70;;;;;;463844;256;1092;-59
2022/04/04 10:16:43;;;;;;;;;;;20.90;23.60;;;;;;463634;256;1278;-60
2022/04/04 10:18:44;;;;;;;;;;;20.90;23.60;;;;;;463786;256;1091;-59
2022/04/04 10:20:47;;;;;;;;;;;20.90;23.60;;;;;;463662;256;2202;-60
2022/04/04 10:22:47;;;;;;;;;;;20.90;23.60;;;;;;464008;257;2321;-60
2022/04/04 10:24:48;;;;;;;;;;;20.90;23.50;;;;;;463678;256;1071;-60
2022/04/04 10:26:50;;;;;;;;;;;21.00;23.60;;;;;;463695;256;1240;-60
2022/04/04 10:28:50;;;;;;;;;;;20.90;23.60;;;;;;464069;257;2037;-60
2022/04/04 10:30:52;;;;;;;;;;;20.90;23.50;;;;;;463539;256;1146;-60
2022/04/04 10:32:53;;;;;;;;;;;20.80;23.70;;;;;;463541;256;1185;-59
2022/04/04 10:34:55;;;;;;;;;;;20.90;23.70;;;;;;463585;256;1075;-60
2022/04/04 10:36:56;;;;;;;;;;;21.00;23.60;;;;;;463537;256;1385;-60
2022/04/04 10:38:57;;;;;;;;;;;21.00;23.50;;;;;;463807;256;1185;-60
2022/04/04 10:40:59;;;;;;;;;;;21.10;23.50;;;;;;463672;256;2143;-59
2022/04/04 10:43:00;;;;;;;;;;;21.00;23.60;;;;;;463720;256;1048;-60
2022/04/04 10:45:03;;;;;;;;;;;21.00;23.60;;;;;;463613;256;1105;-60
2022/04/04 10:47:03;;;;;;;;;;;21.10;23.60;;;;;;463488;256;1279;-60
2022/04/04 10:49:04;;;;;;;;;;;21.10;23.60;;;;;;463493;256;1189;-59
2022/04/04 10:51:06;;;;;;;;;;;20.90;23.70;;;;;;463442;256;1194;-60
2022/04/04 10:53:08;;;;;;;;;;;20.90;23.70;;;;;;463588;256;1122;-60
2022/04/04 10:55:08;;;;;;;;;;;20.90;23.70;;;;;;463637;256;1425;-60
2022/04/04 10:57:10;;;;;;;;;;;20.90;23.70;;;;;;463678;256;1316;-60
2022/04/04 10:59:11;;;;;;;;;;;20.90;23.70;;;;;;463798;256;1086;-60
2022/04/04 11:01:16;;;;;;;;;;;20.80;23.80;;;;;;463933;256;2192;-60
2022/04/04 11:03:17;;;;;;;;;;;20.80;23.80;;;;;;463726;256;2129;-60
2022/04/04 11:07:41;;;;;;;;;;;20.90;23.80;;;;;;463627;257;1063;-60
2022/04/04 11:09:46;;;;;;;;;;;21.00;23.80;;;;;;463589;257;1495;-60
2022/04/04 11:11:43;;;;;;;;;;;20.80;23.90;;;;;;463189;257;1444;-60
2022/04/04 11:13:43;;;;;;;;;;;20.60;24.10;;;;;;463579;257;2214;-60
2022/04/04 11:15:45;;;;;;;;;;;20.50;24.20;;;;;;463626;256;1017;-60
2022/04/04 11:17:46;;;;;;;;;;;20.60;24.10;;;;;;463705;256;1149;-59
2022/04/04 11:19:47;;;;;;;;;;;20.70;24.00;;;;;;463723;256;1079;-59
2022/04/04 11:21:49;;;;;;;;;;;20.80;24.00;;;;;;463550;256;2206;-60
2022/04/04 11:23:50;;;;;;;;;;;20.80;24.00;;;;;;463689;256;1304;-59
2022/04/04 11:25:52;;;;;;;;;;;20.80;23.90;;;;;;463591;256;1063;-60
2022/04/04 11:27:54;;;;;;;;;;;20.90;23.90;;;;;;463583;257;1633;-60
2022/04/04 11:29:54;;;;;;;;;;;20.90;23.90;;;;;;463512;257;1574;-60
2022/04/04 11:31:55;;;;;;;;;;;21.00;23.90;;;;;;463532;257;1147;-60
2022/04/04 11:33:57;;;;;;;;;;;21.10;23.90;;;;;;463757;256;1076;-59
2022/04/04 11:35:58;;;;;;;;;;;21.00;23.90;;;;;;463600;256;1091;-60
2022/04/04 11:37:59;;;;;;;;;;;21.10;23.80;;;;;;463808;256;1173;-60
2022/04/04 11:40:06;;;;;;;;;;;21.10;23.80;;;;;;463681;256;1058;-60
2022/04/04 11:42:05;;;;;;;;;;;21.10;23.90;;;;;;463131;257;2131;-60
2022/04/04 11:44:06;;;;;;;;;;;21.10;23.90;;;;;;463732;256;1195;-60
2022/04/04 11:46:08;;;;;;;;;;;21.10;23.90;;;;;;463498;256;1079;-60
2022/04/04 11:48:10;;;;;;;;;;;21.10;23.90;;;;;;463580;256;1104;-60
2022/04/04 11:50:11;;;;;;;;;;;21.00;24.00;;;;;;463862;256;1054;-60
2022/04/04 11:52:16;;;;;;;;;;;21.10;24.00;;;;;;464062;256;1012;-60
2022/04/04 11:54:15;;;;;;;;;;;21.00;24.00;;;;;;463650;257;2110;-60
2022/04/04 11:56:21;;;;;;;;;;;21.10;24.00;;;;;;463682;256;1083;-60
2022/04/04 11:58:20;;;;;;;;;;;21.10;23.90;;;;;;463490;257;1414;-60
2022/04/04 12:00:20;;;;;;;;;;;21.10;24.00;;;;;;463662;257;2137;-60
2022/04/04 12:02:23;;;;;;;;;;;21.20;24.00;;;;;;463547;256;2210;-60
2022/04/04 12:04:24;;;;;;;;;;;21.30;24.00;;;;;;463521;257;2171;-60